Time;durP1;ratioP1;P1;durP2;ratioP2;P2;SDS_P1;SDS_P2;PMS_P1;PMS_P2;Temp;Humidity;BMP_temperature;BMP_pressure;BME280_temperature;BME280_humidity;BME280_pressure;Samples;Min_cycle;Max_cycle;Signal;HPM_P1;HPM_P2
2022/11/22 00:00:40;;;;;;;0.50;0.50;;;;;;;;;;6100801;23;20073;-94
2022/11/22 00:03:06;;;;;;;0.60;0.60;;;;;;;;;;6100875;23;20471;-95
2022/11/22 00:05:32;;;;;;;0.50;0.50;;;;;;;;;;6100697;23;20050;-94
2022/11/22 00:07:58;;;;;;;0.50;0.50;;;;;;;;;;6100835;23;20021;-94
2022/11/22 00:10:24;;;;;;;0.50;0.50;;;;;;;;;;6100719;23;20362;-94
2022/11/22 00:12:50;;;;;;;0.50;0.50;;;;;;;;;;6100725;23;20018;-94
2022/11/22 00:15:16;;;;;;;0.50;0.50;;;;;;;;;;6125132;23;20010;-94
2022/11/22 00:17:42;;;;;;;0.60;0.60;;;;;;;;;;6100757;23;20049;-94
2022/11/22 00:20:10;;;;;;;0.65;0.65;;;;;;;;;;6100453;23;20045;-94
2022/11/22 00:22:36;;;;;;;0.50;0.50;;;;;;;;;;6100759;23;20024;-93
2022/11/22 00:25:02;;;;;;;0.50;0.50;;;;;;;;;;6100705;23;20020;-92
2022/11/22 00:27:28;;;;;;;0.60;0.60;;;;;;;;;;6100524;23;20073;-92
2022/11/22 00:29:54;;;;;;;0.50;0.50;;;;;;;;;;6100339;23;20018;-93
2022/11/22 00:32:20;;;;;;;0.50;0.50;;;;;;;;;;6100699;23;20021;-93
2022/11/22 00:34:46;;;;;;;0.50;0.50;;;;;;;;;;6100614;23;20010;-93
2022/11/22 00:37:12;;;;;;;0.60;0.60;;;;;;;;;;6124957;23;20021;-92
2022/11/22 00:39:38;;;;;;;0.50;0.50;;;;;;;;;;6100454;23;20018;-92
2022/11/22 00:42:04;;;;;;;0.57;0.57;;;;;;;;;;6100571;23;20029;-92
2022/11/22 00:44:30;;;;;;;0.60;0.60;;;;;;;;;;6100492;23;20025;-93
2022/11/22 00:46:56;;;;;;;0.50;0.50;;;;;;;;;;6100414;23;20017;-93
2022/11/22 00:49:22;;;;;;;0.50;0.50;;;;;;;;;;6100195;23;20014;-92
2022/11/22 00:51:48;;;;;;;0.50;0.50;;;;;;;;;;6124929;23;20522;-93
2022/11/22 00:54:14;;;;;;;0.50;0.50;;;;;;;;;;6100441;23;20081;-93
2022/11/22 00:56:40;;;;;;;0.50;0.50;;;;;;;;;;6100303;23;20017;-93
2022/11/22 00:59:06;;;;;;;0.47;0.47;;;;;;;;;;6100204;23;20018;-91
2022/11/22 01:01:32;;;;;;;0.50;0.50;;;;;;;;;;6100186;23;20097;-92
2022/11/22 01:03:58;;;;;;;0.40;0.40;;;;;;;;;;6100019;23;20029;-93
2022/11/22 01:06:24;;;;;;;0.50;0.50;;;;;;;;;;6100416;23;20049;-94
2022/11/22 01:08:50;;;;;;;0.50;0.50;;;;;;;;;;6100093;23;20029;-93
2022/11/22 01:11:16;;;;;;;0.50;0.50;;;;;;;;;;6100205;23;20013;-92
2022/11/22 01:13:42;;;;;;;0.50;0.50;;;;;;;;;;6100388;23;20009;-93
2022/11/22 01:16:09;;;;;;;0.50;0.50;;;;;;;;;;6100424;23;20507;-94
2022/11/22 01:18:35;;;;;;;0.60;0.60;;;;;;;;;;6100351;23;20053;-93
2022/11/22 01:21:01;;;;;;;0.50;0.50;;;;;;;;;;6100070;23;20024;-94
2022/11/22 01:23:27;;;;;;;0.43;0.43;;;;;;;;;;6100207;23;20014;-94
2022/11/22 01:25:53;;;;;;;0.50;0.50;;;;;;;;;;6100134;23;20025;-94
2022/11/22 01:28:20;;;;;;;1.45;1.35;;;;;;;;;;6100315;23;20325;-93
2022/11/22 01:30:49;;;;;;;0.47;0.47;;;;;;;;;;6099884;23;20018;-93
2022/11/22 01:33:15;;;;;;;0.50;0.50;;;;;;;;;;6100282;23;20148;-92
2022/11/22 01:35:41;;;;;;;0.40;0.40;;;;;;;;;;6100253;23;20018;-92
2022/11/22 01:38:07;;;;;;;0.50;0.50;;;;;;;;;;6124710;23;20017;-94
2022/11/22 01:40:33;;;;;;;0.50;0.50;;;;;;;;;;6100108;23;20014;-94
2022/11/22 01:43:00;;;;;;;0.60;0.60;;;;;;;;;;6100247;23;20495;-93
2022/11/22 01:45:29;;;;;;;0.50;0.50;;;;;;;;;;6100166;23;20018;-94
2022/11/22 01:48:00;;;;;;;0.50;0.50;;;;;;;;;;6100188;23;20006;-94
2022/11/22 01:50:26;;;;;;;0.50;0.50;;;;;;;;;;6124374;23;20020;-93
2022/11/22 01:52:53;;;;;;;0.60;0.60;;;;;;;;;;6100202;23;20452;-94
2022/11/22 01:55:19;;;;;;;0.50;0.50;;;;;;;;;;6100222;23;20017;-93
2022/11/22 01:57:46;;;;;;;0.40;0.40;;;;;;;;;;6100132;23;20014;-94
2022/11/22 02:00:15;;;;;;;0.50;0.50;;;;;;;;;;6099921;23;20022;-92
2022/11/22 02:02:41;;;;;;;0.50;0.50;;;;;;;;;;6100237;23;20064;-94
2022/11/22 02:05:09;;;;;;;0.50;0.50;;;;;;;;;;6100150;23;20072;-94
2022/11/22 02:07:39;;;;;;;0.50;0.50;;;;;;;;;;6100133;23;20021;-94
2022/11/22 02:10:05;;;;;;;0.57;0.57;;;;;;;;;;6100081;23;20022;-94
2022/11/22 02:12:33;;;;;;;0.43;0.43;;;;;;;;;;6124425;23;20005;-95
2022/11/22 02:14:59;;;;;;;0.40;0.40;;;;;;;;;;6100810;23;20018;-94
2022/11/22 02:17:25;;;;;;;0.43;0.43;;;;;;;;;;6102055;23;20063;-93
2022/11/22 02:19:52;;;;;;;0.43;0.43;;;;;;;;;;6101684;23;20022;-95
2022/11/22 02:22:27;;;;;;;0.50;0.50;;;;;;;;;;6126319;23;20069;-94
2022/11/22 02:24:56;;;;;;;0.40;0.40;;;;;;;;;;6101821;23;20101;-95
2022/11/22 02:27:23;;;;;;;0.50;0.50;;;;;;;;;;6101935;23;20022;-94
2022/11/22 02:29:49;;;;;;;0.50;0.50;;;;;;;;;;6101492;23;20065;-93
2022/11/22 02:32:15;;;;;;;0.47;0.47;;;;;;;;;;6101825;23;20017;-92
2022/11/22 02:34:45;;;;;;;0.50;0.50;;;;;;;;;;6102190;23;20025;-92
2022/11/22 02:37:12;;;;;;;0.40;0.40;;;;;;;;;;6101826;23;20013;-93
2022/11/22 02:39:39;;;;;;;0.50;0.50;;;;;;;;;;6101720;23;20018;-94
2022/11/22 02:42:05;;;;;;;0.50;0.50;;;;;;;;;;6101734;23;20045;-92
2022/11/22 02:44:31;;;;;;;0.40;0.40;;;;;;;;;;6102085;23;20068;-94
2022/11/22 02:46:57;;;;;;;0.50;0.50;;;;;;;;;;6102138;23;20019;-93
2022/11/22 02:49:24;;;;;;;0.50;0.50;;;;;;;;;;6101531;23;20018;-94
2022/11/22 02:51:50;;;;;;;0.50;0.50;;;;;;;;;;6126154;23;20068;-95
2022/11/22 02:54:16;;;;;;;0.50;0.50;;;;;;;;;;6101446;23;20021;-94
2022/11/22 02:56:42;;;;;;;0.45;0.45;;;;;;;;;;6101516;23;20018;-93
2022/11/22 02:59:08;;;;;;;0.40;0.40;;;;;;;;;;6101411;23;20018;-93
2022/11/22 03:01:34;;;;;;;0.50;0.50;;;;;;;;;;6101600;23;20097;-93
2022/11/22 03:04:00;;;;;;;0.50;0.50;;;;;;;;;;6101612;23;20024;-94
2022/11/22 03:06:26;;;;;;;0.50;0.50;;;;;;;;;;6101556;23;20408;-95
2022/11/22 03:08:52;;;;;;;0.50;0.50;;;;;;;;;;6101154;23;20045;-94
2022/11/22 03:11:18;;;;;;;0.50;0.50;;;;;;;;;;6101392;23;20025;-94
2022/11/22 03:13:44;;;;;;;0.50;0.50;;;;;;;;;;6101238;23;20010;-94
2022/11/22 03:16:10;;;;;;;0.40;0.40;;;;;;;;;;6101315;23;20220;-95
2022/11/22 03:18:36;;;;;;;0.30;0.30;;;;;;;;;;6101395;23;20025;-93
2022/11/22 03:21:03;;;;;;;0.40;0.40;;;;;;;;;;6101056;23;20018;-94
2022/11/22 03:23:29;;;;;;;0.50;0.50;;;;;;;;;;6101246;23;20052;-95
2022/11/22 03:25:55;;;;;;;0.40;0.40;;;;;;;;;;6101042;23;20018;-94
2022/11/22 03:28:21;;;;;;;0.28;0.28;;;;;;;;;;6101037;23;20075;-94
2022/11/22 03:30:47;;;;;;;0.50;0.50;;;;;;;;;;6100795;23;20452;-94
2022/11/22 03:33:13;;;;;;;0.50;0.50;;;;;;;;;;6101421;23;20348;-93
2022/11/22 03:35:39;;;;;;;0.47;0.47;;;;;;;;;;6101291;23;20025;-94
2022/11/22 03:38:06;;;;;;;0.45;0.45;;;;;;;;;;6101083;23;20141;-94
2022/11/22 03:40:32;;;;;;;0.40;0.40;;;;;;;;;;6100939;23;20466;-94
2022/11/22 03:43:01;;;;;;;0.50;0.50;;;;;;;;;;6125601;23;20016;-94
2022/11/22 03:45:28;;;;;;;0.40;0.40;;;;;;;;;;6101281;23;20135;-94
2022/11/22 03:47:55;;;;;;;0.45;0.45;;;;;;;;;;6101030;23;20444;-94
2022/11/22 03:50:21;;;;;;;0.40;0.40;;;;;;;;;;6100673;23;20014;-92
2022/11/22 03:52:47;;;;;;;0.50;0.50;;;;;;;;;;6100864;23;20025;-92
2022/11/22 03:55:13;;;;;;;0.60;0.60;;;;;;;;;;6100964;23;20348;-92
2022/11/22 03:57:39;;;;;;;0.40;0.40;;;;;;;;;;6101268;23;20106;-92
2022/11/22 04:00:05;;;;;;;0.40;0.40;;;;;;;;;;6100542;23;20021;-94
2022/11/22 04:02:31;;;;;;;0.43;0.43;;;;;;;;;;6100928;23;20057;-93
2022/11/22 04:04:57;;;;;;;0.50;0.50;;;;;;;;;;6100717;23;20018;-92
2022/11/22 04:07:23;;;;;;;0.30;0.30;;;;;;;;;;6100959;23;20062;-92
2022/11/22 04:09:49;;;;;;;0.50;0.50;;;;;;;;;;6100589;23;20456;-94
2022/11/22 04:12:15;;;;;;;0.30;0.30;;;;;;;;;;6100943;23;20207;-94
2022/11/22 04:17:42;;;;;;;0.45;0.45;;;;;;;;;;6125228;23;20041;-93
2022/11/22 04:23:02;;;;;;;0.50;0.50;;;;;;;;;;6125212;23;20448;-93
2022/11/22 04:25:29;;;;;;;0.50;0.50;;;;;;;;;;6100725;23;20021;-94
2022/11/22 04:27:56;;;;;;;0.45;0.45;;;;;;;;;;6100611;23;20018;-94
2022/11/22 04:32:44;;;;;;;0.50;0.50;;;;;;;;;;6101142;23;20021;-92
2022/11/22 04:33:08;;;;;;;0.40;0.40;;;;;;;;;;6129807;23;20052;-93
2022/11/22 04:35:34;;;;;;;0.30;0.30;;;;;;;;;;6129961;23;20014;-94
2022/11/22 04:38:00;;;;;;;0.40;0.40;;;;;;;;;;6105477;23;20049;-93
2022/11/22 04:40:26;;;;;;;0.50;0.50;;;;;;;;;;6129724;23;20021;-94
2022/11/22 04:45:37;;;;;;;0.40;0.40;;;;;;;;;;6130103;23;20025;-93
2022/11/22 04:48:03;;;;;;;0.47;0.47;;;;;;;;;;6129817;23;20014;-92
2022/11/22 04:53:15;;;;;;;0.40;0.40;;;;;;;;;;6129721;23;20104;-93
2022/11/22 04:55:41;;;;;;;0.40;0.40;;;;;;;;;;6105384;23;20411;-92
2022/11/22 04:58:07;;;;;;;0.40;0.40;;;;;;;;;;6105520;23;20089;-94
2022/11/22 05:00:33;;;;;;;0.40;0.40;;;;;;;;;;6105675;23;20044;-93
2022/11/22 05:02:59;;;;;;;0.43;0.43;;;;;;;;;;6104223;23;20021;-94
2022/11/22 05:05:26;;;;;;;0.40;0.40;;;;;;;;;;6105515;23;20320;-94
2022/11/22 05:07:52;;;;;;;0.38;0.38;;;;;;;;;;6104964;23;20013;-93
2022/11/22 05:10:18;;;;;;;0.45;0.45;;;;;;;;;;6104651;23;20056;-94
2022/11/22 05:12:44;;;;;;;0.43;0.43;;;;;;;;;;6105154;23;20017;-94
2022/11/22 05:15:10;;;;;;;0.50;0.50;;;;;;;;;;6105335;23;20068;-94
2022/11/22 05:17:37;;;;;;;0.50;0.50;;;;;;;;;;6105002;23;20044;-94
2022/11/22 05:20:03;;;;;;;0.40;0.40;;;;;;;;;;6104646;23;20049;-94
2022/11/22 05:25:14;;;;;;;0.60;0.60;;;;;;;;;;6129488;23;20059;-93
2022/11/22 05:27:39;;;;;;;0.50;0.50;;;;;;;;;;6105199;23;20022;-93
2022/11/22 05:30:06;;;;;;;0.40;0.40;;;;;;;;;;6104935;23;20021;-93
2022/11/22 05:32:32;;;;;;;0.50;0.50;;;;;;;;;;6100123;23;20014;-93
2022/11/22 05:34:59;;;;;;;0.52;0.52;;;;;;;;;;6100201;23;20017;-93
2022/11/22 05:37:25;;;;;;;0.50;0.50;;;;;;;;;;6100220;23;20092;-92
2022/11/22 05:39:51;;;;;;;0.50;0.50;;;;;;;;;;6099889;23;20427;-94
2022/11/22 05:42:17;;;;;;;0.40;0.40;;;;;;;;;;6124567;23;20022;-94
2022/11/22 05:44:43;;;;;;;0.40;0.40;;;;;;;;;;6100218;23;20018;-93
2022/11/22 05:47:10;;;;;;;0.40;0.40;;;;;;;;;;6099899;23;20356;-94
2022/11/22 05:49:36;;;;;;;0.50;0.50;;;;;;;;;;6100163;23;20017;-95
2022/11/22 05:52:03;;;;;;;0.50;0.50;;;;;;;;;;6102122;23;20014;-94
2022/11/22 05:54:29;;;;;;;0.40;0.40;;;;;;;;;;6102029;23;20077;-94
2022/11/22 05:56:55;;;;;;;0.50;0.50;;;;;;;;;;6101934;23;20022;-93
2022/11/22 05:59:21;;;;;;;0.50;0.50;;;;;;;;;;6078066;23;20021;-94
2022/11/22 06:01:47;;;;;;;0.40;0.40;;;;;;;;;;6101949;23;20021;-94
2022/11/22 06:04:13;;;;;;;0.40;0.40;;;;;;;;;;6102041;23;20025;-94
2022/11/22 06:06:39;;;;;;;0.38;0.38;;;;;;;;;;6126469;23;20014;-94
2022/11/22 06:09:05;;;;;;;0.43;0.43;;;;;;;;;;6101938;23;20459;-93
2022/11/22 06:11:31;;;;;;;0.50;0.50;;;;;;;;;;6102023;23;20387;-94
2022/11/22 06:13:58;;;;;;;0.50;0.50;;;;;;;;;;6101794;23;20033;-93
2022/11/22 06:16:24;;;;;;;0.50;0.50;;;;;;;;;;6101851;23;20010;-94
2022/11/22 06:18:52;;;;;;;0.50;0.50;;;;;;;;;;6101432;23;20121;-92
2022/11/22 06:21:19;;;;;;;0.50;0.50;;;;;;;;;;6101773;23;20104;-93
2022/11/22 06:23:45;;;;;;;0.50;0.50;;;;;;;;;;6101867;23;20028;-92
2022/11/22 06:26:12;;;;;;;0.30;0.30;;;;;;;;;;6101613;23;20077;-93
2022/11/22 06:28:38;;;;;;;0.40;0.40;;;;;;;;;;6101709;23;20048;-94
2022/11/22 06:31:12;;;;;;;0.40;0.40;;;;;;;;;;6101324;23;20017;-94
2022/11/22 06:33:39;;;;;;;0.40;0.40;;;;;;;;;;6101789;23;20056;-94
2022/11/22 06:36:07;;;;;;;0.40;0.40;;;;;;;;;;6101875;23;20010;-94
2022/11/22 06:38:33;;;;;;;0.30;0.30;;;;;;;;;;6101669;23;20029;-94
2022/11/22 06:41:02;;;;;;;0.40;0.40;;;;;;;;;;6101398;23;20142;-94
2022/11/22 06:43:29;;;;;;;0.30;0.30;;;;;;;;;;6101658;23;20098;-94
2022/11/22 06:45:56;;;;;;;0.40;0.40;;;;;;;;;;6101483;23;20018;-94
2022/11/22 06:48:23;;;;;;;0.40;0.40;;;;;;;;;;6101298;23;20058;-93
2022/11/22 06:50:49;;;;;;;0.50;0.50;;;;;;;;;;6100921;23;20096;-94
2022/11/22 06:53:14;;;;;;;0.50;0.50;;;;;;;;;;6101396;23;20056;-94
2022/11/22 06:55:40;;;;;;;0.40;0.40;;;;;;;;;;6100796;23;20020;-92
2022/11/22 06:58:06;;;;;;;0.40;0.40;;;;;;;;;;6125583;23;20361;-93
2022/11/22 07:00:32;;;;;;;0.50;0.50;;;;;;;;;;6100874;23;20029;-95
2022/11/22 07:02:58;;;;;;;0.40;0.40;;;;;;;;;;6101312;23;20049;-93
2022/11/22 07:05:24;;;;;;;0.40;0.40;;;;;;;;;;6101381;23;20081;-93
2022/11/22 07:07:50;;;;;;;0.40;0.40;;;;;;;;;;6101457;23;20014;-94
2022/11/22 07:10:16;;;;;;;0.80;0.80;;;;;;;;;;6100987;23;20018;-93
2022/11/22 07:12:42;;;;;;;0.40;0.40;;;;;;;;;;6101422;23;20414;-93
2022/11/22 07:15:08;;;;;;;0.40;0.40;;;;;;;;;;6125724;23;20010;-93
2022/11/22 07:17:35;;;;;;;0.40;0.40;;;;;;;;;;6100757;23;20018;-93
2022/11/22 07:20:01;;;;;;;0.40;0.40;;;;;;;;;;6125146;23;20043;-93
2022/11/22 07:22:28;;;;;;;0.40;0.40;;;;;;;;;;6124438;23;20018;-93
2022/11/22 07:24:53;;;;;;;0.40;0.40;;;;;;;;;;6101199;23;20443;-94
2022/11/22 07:27:19;;;;;;;0.50;0.50;;;;;;;;;;6100372;23;20072;-93
2022/11/22 07:29:45;;;;;;;0.50;0.50;;;;;;;;;;6100687;23;20029;-93
2022/11/22 07:32:11;;;;;;;0.50;0.50;;;;;;;;;;6100934;23;20470;-94
2022/11/22 07:34:37;;;;;;;0.40;0.40;;;;;;;;;;6101013;23;20018;-92
2022/11/22 07:37:03;;;;;;;0.32;0.32;;;;;;;;;;6101673;23;20052;-93
2022/11/22 07:39:29;;;;;;;0.50;0.50;;;;;;;;;;6102108;23;20025;-93
2022/11/22 07:41:55;;;;;;;0.50;0.50;;;;;;;;;;6101350;23;20076;-94
2022/11/22 07:44:21;;;;;;;0.50;0.50;;;;;;;;;;6101079;23;20028;-93
2022/11/22 07:46:48;;;;;;;0.40;0.40;;;;;;;;;;6101523;23;20061;-93
2022/11/22 07:49:15;;;;;;;0.40;0.40;;;;;;;;;;6101473;23;20444;-95
2022/11/22 07:51:40;;;;;;;0.50;0.50;;;;;;;;;;6099165;23;20216;-92
2022/11/22 07:57:26;;;;;;;0.45;0.45;;;;;;;;;;6125480;23;20333;-90
2022/11/22 07:59:52;;;;;;;0.50;0.50;;;;;;;;;;6125162;23;20021;-92
2022/11/22 08:02:18;;;;;;;0.50;0.50;;;;;;;;;;6101292;23;20059;-92
2022/11/22 08:04:44;;;;;;;0.40;0.40;;;;;;;;;;6125590;23;20014;-92
2022/11/22 08:07:10;;;;;;;0.40;0.40;;;;;;;;;;6101619;23;20049;-96
2022/11/22 08:09:36;;;;;;;0.60;0.60;;;;;;;;;;6101356;23;20022;-93
2022/11/22 08:12:02;;;;;;;0.40;0.40;;;;;;;;;;6101519;23;20014;-93
2022/11/22 08:14:28;;;;;;;0.50;0.50;;;;;;;;;;6101642;23;20123;-92
2022/11/22 08:16:54;;;;;;;0.50;0.50;;;;;;;;;;6126056;23;20115;-93
2022/11/22 08:19:21;;;;;;;0.50;0.50;;;;;;;;;;6101287;23;20022;-91
2022/11/22 08:21:47;;;;;;;0.40;0.40;;;;;;;;;;6101272;23;20018;-92
2022/11/22 08:24:14;;;;;;;0.50;0.50;;;;;;;;;;6101475;23;20022;-94
2022/11/22 08:26:40;;;;;;;0.50;0.50;;;;;;;;;;6101560;23;20043;-94
2022/11/22 08:29:07;;;;;;;0.50;0.50;;;;;;;;;;6101754;23;20058;-96
2022/11/22 08:31:33;;;;;;;0.40;0.40;;;;;;;;;;6102666;23;20009;-92
2022/11/22 08:33:59;;;;;;;0.40;0.40;;;;;;;;;;6102765;23;20700;-96
2022/11/22 08:36:25;;;;;;;0.40;0.40;;;;;;;;;;6101189;23;20506;-95
2022/11/22 08:38:51;;;;;;;0.43;0.43;;;;;;;;;;6100630;23;20033;-94
2022/11/22 08:41:17;;;;;;;0.40;0.40;;;;;;;;;;6101876;23;20018;-96
2022/11/22 08:43:44;;;;;;;0.50;0.50;;;;;;;;;;6107238;23;20018;-94
2022/11/22 08:46:10;;;;;;;0.40;0.40;;;;;;;;;;6103208;23;20097;-94
2022/11/22 08:48:36;;;;;;;0.40;0.40;;;;;;;;;;6106301;23;20018;-95
2022/11/22 08:51:06;;;;;;;0.50;0.50;;;;;;;;;;6102796;23;20018;-93
2022/11/22 08:53:44;;;;;;;0.40;0.40;;;;;;;;;;6107075;23;20021;-94
2022/11/22 08:56:11;;;;;;;0.50;0.50;;;;;;;;;;6104842;23;20077;-94
2022/11/22 08:58:37;;;;;;;0.40;0.40;;;;;;;;;;6108204;23;20029;-94
2022/11/22 09:01:12;;;;;;;0.40;0.40;;;;;;;;;;6106044;23;20057;-94
2022/11/22 09:03:39;;;;;;;0.40;0.40;;;;;;;;;;6105861;23;20033;-96
2022/11/22 09:06:07;;;;;;;0.50;0.50;;;;;;;;;;6106819;23;20028;-96
2022/11/22 09:08:33;;;;;;;0.47;0.47;;;;;;;;;;6106174;23;20029;-96
2022/11/22 09:11:03;;;;;;;0.50;0.50;;;;;;;;;;6106609;23;20352;-94
2022/11/22 09:13:46;;;;;;;0.40;0.40;;;;;;;;;;6104995;23;20069;-96
2022/11/22 09:16:17;;;;;;;0.32;0.32;;;;;;;;;;6104330;23;20018;-96
2022/11/22 09:18:43;;;;;;;0.40;0.40;;;;;;;;;;6104630;23;20025;-96
2022/11/22 09:21:10;;;;;;;0.40;0.40;;;;;;;;;;6104345;23;20068;-95
2022/11/22 09:23:37;;;;;;;0.47;0.47;;;;;;;;;;6101426;23;20018;-92
2022/11/22 09:26:04;;;;;;;0.50;0.50;;;;;;;;;;6100649;23;20478;-90
2022/11/22 09:28:30;;;;;;;0.40;0.40;;;;;;;;;;6100229;23;20017;-89
2022/11/22 09:31:07;;;;;;;0.40;0.40;;;;;;;;;;6124281;23;20048;-90
2022/11/22 09:33:33;;;;;;;0.32;0.32;;;;;;;;;;6101090;23;20014;-90
2022/11/22 09:36:03;;;;;;;0.50;0.50;;;;;;;;;;6100229;23;20014;-89
2022/11/22 09:38:30;;;;;;;0.40;0.40;;;;;;;;;;6100345;23;20066;-90
2022/11/22 09:40:57;;;;;;;0.40;0.40;;;;;;;;;;6100344;23;20010;-92
2022/11/22 09:43:29;;;;;;;0.35;0.35;;;;;;;;;;6101075;23;20018;-95
2022/11/22 09:46:02;;;;;;;0.50;0.50;;;;;;;;;;6102575;23;20021;-94
2022/11/22 09:48:37;;;;;;;0.50;0.50;;;;;;;;;;6103070;23;20025;-94
2022/11/22 09:51:09;;;;;;;0.40;0.40;;;;;;;;;;6106541;23;20014;-96
2022/11/22 09:53:35;;;;;;;0.50;0.50;;;;;;;;;;6105102;23;20042;-95
2022/11/22 09:56:04;;;;;;;0.40;0.40;;;;;;;;;;6125482;23;20029;-96
2022/11/22 09:58:32;;;;;;;0.40;0.40;;;;;;;;;;6103490;23;20014;-96
2022/11/22 10:01:14;;;;;;;0.40;0.40;;;;;;;;;;6100924;23;20022;-96
2022/11/22 10:03:44;;;;;;;0.50;0.50;;;;;;;;;;6101164;23;20018;-96
2022/11/22 10:06:16;;;;;;;0.47;0.47;;;;;;;;;;6100987;23;20010;-96
2022/11/22 10:08:57;;;;;;;0.30;0.30;;;;;;;;;;6100924;23;20125;-96
2022/11/22 10:11:36;;;;;;;0.40;0.40;;;;;;;;;;6101979;23;20022;-94
2022/11/22 10:14:04;;;;;;;0.40;0.40;;;;;;;;;;6101609;23;20022;-96
2022/11/22 10:16:34;;;;;;;0.40;0.40;;;;;;;;;;6103936;23;20025;-93
2022/11/22 10:19:00;;;;;;;0.40;0.40;;;;;;;;;;6125520;23;20018;-93
2022/11/22 10:21:26;;;;;;;0.40;0.40;;;;;;;;;;6101762;23;20451;-92
2022/11/22 10:23:52;;;;;;;0.40;0.40;;;;;;;;;;6102267;23;20503;-93
2022/11/22 10:26:21;;;;;;;0.40;0.40;;;;;;;;;;6102667;23;20022;-92
2022/11/22 10:28:55;;;;;;;0.43;0.43;;;;;;;;;;6100546;23;20081;-91
2022/11/22 10:31:25;;;;;;;0.40;0.40;;;;;;;;;;6100990;23;20022;-94
2022/11/22 10:36:48;;;;;;;0.40;0.40;;;;;;;;;;6126426;23;20025;-94
2022/11/22 10:39:20;;;;;;;0.40;0.40;;;;;;;;;;6102587;23;20025;-95
2022/11/22 10:42:07;;;;;;;0.38;0.38;;;;;;;;;;6102460;23;20277;-94
2022/11/22 10:45:01;;;;;;;0.40;0.40;;;;;;;;;;6103651;23;20014;-94
2022/11/22 10:47:36;;;;;;;0.40;0.40;;;;;;;;;;6102944;23;20097;-94
2022/11/22 10:50:01;;;;;;;0.30;0.30;;;;;;;;;;6102208;23;20052;-95
2022/11/22 10:52:46;;;;;;;0.40;0.40;;;;;;;;;;6102744;23;20049;-96
2022/11/22 10:55:23;;;;;;;0.50;0.50;;;;;;;;;;6102492;23;20021;-93
2022/11/22 10:58:27;;;;;;;0.30;0.30;;;;;;;;;;6102415;23;20014;-94
2022/11/22 11:00:59;;;;;;;0.40;0.40;;;;;;;;;;5963878;23;20026;-94
2022/11/22 11:03:27;;;;;;;0.30;0.30;;;;;;;;;;5987313;23;20019;-94
2022/11/22 11:06:05;;;;;;;0.30;0.30;;;;;;;;;;6050999;23;20018;-95
2022/11/22 11:08:50;;;;;;;0.40;0.40;;;;;;;;;;6113693;23;20041;-96
2022/11/22 11:11:16;;;;;;;0.40;0.40;;;;;;;;;;6109280;23;20502;-96
2022/11/22 11:13:44;;;;;;;0.47;0.47;;;;;;;;;;6108238;23;20093;-96
2022/11/22 11:16:13;;;;;;;0.40;0.40;;;;;;;;;;6111279;23;20022;-96
2022/11/22 11:19:02;;;;;;;0.30;0.30;;;;;;;;;;6112223;23;20041;-95
2022/11/22 11:21:28;;;;;;;0.30;0.30;;;;;;;;;;6112499;23;20025;-96
2022/11/22 11:23:54;;;;;;;0.38;0.38;;;;;;;;;;6131824;23;20021;-95
2022/11/22 11:26:29;;;;;;;0.40;0.40;;;;;;;;;;6105905;23;20057;-96
2022/11/22 11:29:13;;;;;;;0.35;0.35;;;;;;;;;;6108807;23;20025;-96
2022/11/22 11:31:47;;;;;;;0.50;0.50;;;;;;;;;;6106098;23;20075;-96
2022/11/22 11:34:20;;;;;;;0.40;0.40;;;;;;;;;;6129575;23;20089;-96
2022/11/22 11:36:46;;;;;;;0.40;0.40;;;;;;;;;;6105965;23;20014;-96
2022/11/22 11:39:23;;;;;;;0.70;0.70;;;;;;;;;;6105165;23;20333;-96
2022/11/22 11:41:49;;;;;;;0.40;0.40;;;;;;;;;;6104588;23;20041;-96
2022/11/22 11:44:35;;;;;;;0.40;0.40;;;;;;;;;;6105514;23;20057;-96
2022/11/22 11:47:01;;;;;;;;;;;;;;;;;;6107293;23;20077;-96
2022/11/22 11:49:34;;;;;;;0.40;0.40;;;;;;;;;;6131600;23;19917;-96
2022/11/22 11:52:19;;;;;;;0.30;0.30;;;;;;;;;;6105298;23;20025;-93
2022/11/22 11:54:47;;;;;;;0.30;0.30;;;;;;;;;;6105323;23;20101;-96
2022/11/22 11:57:19;;;;;;;0.40;0.40;;;;;;;;;;6105945;23;20018;-96
2022/11/22 11:59:47;;;;;;;0.30;0.30;;;;;;;;;;6106171;23;20102;-96
2022/11/22 12:02:29;;;;;;;0.30;0.30;;;;;;;;;;6105541;23;20021;-95
2022/11/22 12:04:58;;;;;;;0.40;0.40;;;;;;;;;;6106106;23;20474;-96
2022/11/22 12:07:27;;;;;;;0.30;0.30;;;;;;;;;;6105446;23;20337;-95
2022/11/22 12:09:54;;;;;;;0.30;0.30;;;;;;;;;;6105708;23;20149;-96
2022/11/22 12:12:26;;;;;;;0.30;0.30;;;;;;;;;;6106145;23;20018;-96
2022/11/22 12:14:58;;;;;;;0.25;0.25;;;;;;;;;;6105299;23;20030;-96
2022/11/22 12:17:25;;;;;;;0.50;0.50;;;;;;;;;;6105662;23;20053;-95
2022/11/22 12:20:03;;;;;;;0.20;0.20;;;;;;;;;;6105660;23;20333;-96
2022/11/22 12:25:55;;;;;;;0.30;0.30;;;;;;;;;;6140758;23;20008;-96
2022/11/22 12:28:23;;;;;;;0.40;0.40;;;;;;;;;;6105023;23;20025;-96
2022/11/22 12:31:01;;;;;;;0.28;0.28;;;;;;;;;;6103315;23;20081;-96
2022/11/22 12:34:09;;;;;;;;;;;;;;;;;;;;;
2022/11/22 12:37:25;;;;;;;0.30;0.30;;;;;;;;;;6140126;23;20053;-96
2022/11/22 12:43:36;;;;;;;0.40;0.40;;;;;;;;;;6137463;23;20391;-95
2022/11/22 12:46:29;;;;;;;0.40;0.40;;;;;;;;;;6104392;23;20029;-96
2022/11/22 12:48:57;;;;;;;0.40;0.40;;;;;;;;;;6115697;23;20049;-96
2022/11/22 12:51:48;;;;;;;0.40;0.40;;;;;;;;;;6103706;23;20091;-96
2022/11/22 12:57:56;;;;;;;0.40;0.40;;;;;;;;;;6139697;23;20033;-96
2022/11/22 13:01:02;;;;;;;;;;;;;;;;;;;;;
2022/11/22 13:10:55;;;;;;;0.40;0.40;;;;;;;;;;6021043;23;20026;-96
2022/11/22 13:13:31;;;;;;;0.35;0.35;;;;;;;;;;5991435;23;20187;-96
2022/11/22 13:16:00;;;;;;;0.40;0.40;;;;;;;;;;6103583;23;20504;-96
2022/11/22 13:18:33;;;;;;;0.30;0.30;;;;;;;;;;6103997;23;20458;-96
2022/11/22 13:24:16;;;;;;;0.30;0.30;;;;;;;;;;6129370;23;20064;-96
2022/11/22 13:26:43;;;;;;;;;;;;;;;;;;6106275;23;20041;-96
2022/11/22 13:40:05;;;;;;;0.30;0.30;;;;;;;;;;6020481;23;20580;-96
2022/11/22 13:53:35;;;;;;;0.40;0.40;;;;;;;;;;5914694;23;20035;-96
2022/11/22 13:56:34;;;;;;;0.40;0.40;;;;;;;;;;5957701;23;20019;-96
2022/11/22 14:02:48;;;;;;;0.50;0.50;;;;;;;;;;5936055;24;20130;-96
2022/11/22 14:09:08;;;;;;;0.30;0.30;;;;;;;;;;6118153;23;20021;-96
2022/11/22 14:11:42;;;;;;;0.30;0.30;;;;;;;;;;6103077;23;20030;-95
2022/11/22 14:48:17;;;;;;;0.40;0.40;;;;;;;;;;6106509;23;20090;-96
2022/11/22 14:50:44;;;;;;;;;;;;;;;;;;6103912;23;20033;-96
2022/11/22 14:56:25;;;;;;;0.50;0.50;;;;;;;;;;6127655;23;20025;-96
2022/11/22 14:59:11;;;;;;;0.40;0.40;;;;;;;;;;6104010;23;20024;-96
2022/11/22 15:01:56;;;;;;;0.40;0.40;;;;;;;;;;6033486;23;20020;-96
2022/11/22 15:04:22;;;;;;;0.30;0.30;;;;;;;;;;6104680;23;20053;-96
2022/11/22 15:06:54;;;;;;;0.20;0.20;;;;;;;;;;6104322;23;20066;-96
2022/11/22 15:09:32;;;;;;;0.30;0.30;;;;;;;;;;6104355;23;20025;-96
2022/11/22 15:11:58;;;;;;;0.30;0.30;;;;;;;;;;6103911;23;20053;-96
2022/11/22 15:14:42;;;;;;;0.30;0.30;;;;;;;;;;6103701;23;20018;-96
2022/11/22 15:17:11;;;;;;;0.30;0.30;;;;;;;;;;6103317;23;20025;-96
2022/11/22 15:19:50;;;;;;;0.40;0.40;;;;;;;;;;6103346;23;20049;-96
2022/11/22 15:22:23;;;;;;;0.30;0.30;;;;;;;;;;6102652;23;20101;-96
2022/11/22 15:24:51;;;;;;;0.20;0.20;;;;;;;;;;6103350;23;20025;-96
2022/11/22 15:27:20;;;;;;;0.30;0.30;;;;;;;;;;6103467;23;20017;-96
2022/11/22 15:29:46;;;;;;;0.30;0.30;;;;;;;;;;6103129;23;20089;-96
2022/11/22 15:32:16;;;;;;;0.40;0.40;;;;;;;;;;6103569;23;20060;-94
2022/11/22 15:34:48;;;;;;;0.40;0.40;;;;;;;;;;6102201;23;20097;-96
2022/11/22 15:37:31;;;;;;;0.40;0.40;;;;;;;;;;6102326;23;20014;-96
2022/11/22 15:39:57;;;;;;;0.30;0.30;;;;;;;;;;6102331;23;20029;-96
2022/11/22 15:42:34;;;;;;;0.40;0.40;;;;;;;;;;6102717;23;20026;-96
2022/11/22 15:45:03;;;;;;;0.30;0.30;;;;;;;;;;6103216;23;20559;-96
2022/11/22 15:47:29;;;;;;;0.40;0.40;;;;;;;;;;6102674;23;20037;-96
2022/11/22 15:49:55;;;;;;;0.40;0.40;;;;;;;;;;6102518;23;20021;-96
2022/11/22 15:52:22;;;;;;;0.30;0.30;;;;;;;;;;6102316;23;20061;-96
2022/11/22 15:54:53;;;;;;;0.30;0.30;;;;;;;;;;6102402;23;20130;-96
2022/11/22 15:57:32;;;;;;;0.32;0.32;;;;;;;;;;6102523;23;20018;-96
2022/11/22 15:59:59;;;;;;;0.40;0.40;;;;;;;;;;6102154;23;20432;-96
2022/11/22 16:02:28;;;;;;;0.32;0.32;;;;;;;;;;6102293;23;20028;-94
2022/11/22 16:05:02;;;;;;;0.30;0.30;;;;;;;;;;6102119;23;20021;-96
2022/11/22 16:07:33;;;;;;;0.30;0.30;;;;;;;;;;6102263;23;20018;-96
2022/11/22 16:13:34;;;;;;;0.30;0.30;;;;;;;;;;6126787;23;20053;-96
2022/11/22 16:16:10;;;;;;;0.40;0.40;;;;;;;;;;6100886;23;20018;-96
2022/11/22 16:18:49;;;;;;;0.40;0.40;;;;;;;;;;6102399;23;20104;-96
2022/11/22 16:21:15;;;;;;;0.35;0.35;;;;;;;;;;6102388;23;20072;-96
2022/11/22 16:23:43;;;;;;;0.40;0.40;;;;;;;;;;6101651;23;20033;-95
2022/11/22 16:26:25;;;;;;;0.40;0.40;;;;;;;;;;6102089;23;20025;-95
2022/11/22 16:28:55;;;;;;;0.30;0.30;;;;;;;;;;6102303;23;20313;-96
2022/11/22 16:31:25;;;;;;;0.30;0.30;;;;;;;;;;6101699;23;20017;-96
2022/11/22 16:33:52;;;;;;;0.30;0.30;;;;;;;;;;6101213;23;20097;-96
2022/11/22 16:36:19;;;;;;;0.50;0.50;;;;;;;;;;6102292;23;20013;-94
2022/11/22 16:38:45;;;;;;;0.40;0.40;;;;;;;;;;6102438;23;20018;-90
2022/11/22 16:41:20;;;;;;;0.35;0.35;;;;;;;;;;6102482;23;20368;-96
2022/11/22 16:46:36;;;;;;;0.40;0.40;;;;;;;;;;6127280;23;20021;-96
2022/11/22 16:49:11;;;;;;;0.50;0.50;;;;;;;;;;6102765;23;20025;-96
2022/11/22 16:51:37;;;;;;;;;;;;;;;;;;6104459;23;20010;-96